Thalassa — FNFP — position and weather

sailwx.info

Track history (hours):
 
Tides and Currents Weather Stations Pressure Air Temp Water Temp Dewpoint Dewpoint Depression Visibility Wind Speed Wind Dir Waves Ship Positions

Oceanographic research ship Thalassa (France & Spain)

Detailed information on ship capabilities available from University of Delaware's Ocean Information Center.

Last reported at 2017-Oct-17 15:00 UTC. Time now 2017-Oct-17 15:10 UTC.
Position N 50°07' W 000°25'.

Length 74 m; beam 15 m.

Type: Other ship. MMSI: 227297000.

Date/timePositionNaut miles runAvg speedWind from/ knotsBaromVisibWave heightAir tempDewpointWater temp
2017-Oct-17 15:00N 50°07' W 000°25'713.2
2017-Oct-17 14:30N 50°10' W 000°16'713.3
2017-Oct-17 14:01N 50°13' W 000°07'3 6.4
2017-Oct-17 13:30N 50°15' W 000°03'1 3.0
2017-Oct-17 13:00N 50°14' W 000°05'3 5.7
2017-Oct-17 12:30N 50°16' W 000°08'5 9.2
2017-Oct-17 12:00N 50°21' W 000°10'0 0.1
2017-Oct-17 11:28N 50°21' W 000°10'2 3.7
2017-Oct-17 11:00N 50°20' W 000°13'3 6.7
2017-Oct-17 10:31N 50°23' W 000°12'611.0
2017-Oct-17 10:00N 50°29' W 000°11'3 6.3
2017-Oct-17 09:30N 50°32' W 000°11'1 1.7
2017-Oct-17 09:00N 50°33' W 000°11'2 3.4
2017-Oct-17 08:30N 50°33' W 000°08'2 4.6
2017-Oct-17 08:01N 50°34' W 000°05'4 7.7
2017-Oct-17 07:30N 50°32' E 000°01'1 2.3
2017-Oct-17 07:01N 50°33' E 000°03'2 4.1
2017-Oct-17 06:31N 50°33' E 000°06'1 2.8
2017-Oct-17 06:00N 50°34' E 000°08'1 1.8
2017-Oct-17 05:31N 50°35' E 000°08'0 0.8
2017-Oct-17 05:00N 50°35' E 000°07'1 2.8
2017-Oct-17 04:31N 50°35' E 000°05'0 1.0
2017-Oct-17 04:00N 50°35' E 000°06'1 1.0
2017-Oct-17 03:31N 50°35' E 000°07'0 0.4
2017-Oct-17 03:00N 50°35' E 000°06'2 3.2
2017-Oct-17 02:30N 50°35' E 000°04'2 3.5
2017-Oct-17 02:00N 50°33' E 000°03'510.6
2017-Oct-17 01:31N 50°28' E 000°05'510.5
2017-Oct-17 01:00N 50°23' E 000°07'510.5
2017-Oct-17 00:30N 50°18' E 000°09'5 9.4
2017-Oct-17 00:00N 50°16' E 000°03'5 9.7
2017-Oct-16 23:30N 50°15' W 000°05'1 1.8
2017-Oct-16 22:53N 50°14' W 000°05'1 2.5
2017-Oct-16 22:30N 50°14' W 000°04'1 2.8
2017-Oct-16 22:01N 50°14' W 000°06'1 1.4
2017-Oct-16 21:26N 50°14' W 000°05'1 1.5
2017-Oct-16 21:00N 50°14' W 000°04'1 2.2
2017-Oct-16 20:31N 50°14' W 000°06'1 1.1
2017-Oct-16 20:00N 50°14' W 000°05'1 2.1
2017-Oct-16 19:30N 50°15' W 000°03'2 3.8
2017-Oct-16 19:00N 50°14' W 000°06'510.5
2017-Oct-16 18:31N 50°09' W 000°08'611.7
2017-Oct-16 18:01N 50°03' W 000°09'611.6
2017-Oct-16 17:31N 49°58' W 000°11'610.4
2017-Oct-16 16:54N 49°51' W 000°13'1 2.9
2017-Oct-16 16:30N 49°50' W 000°13'1 1.4
2017-Oct-16 16:00N 49°50' W 000°14'4 3.8
2017-Oct-16 15:01N 49°50' W 000°20'0 1.7
2017-Oct-16 14:55N 49°50' W 000°20'26 3.9
2017-Oct-16 08:10N 49°25' W 000°32'310.1
2017-Oct-16 07:51N 49°26' W 000°27'410.3
2017-Oct-16 07:31N 49°28' W 000°22'3 5.1
2017-Oct-16 06:59N 49°28' W 000°18'2 4.0
2017-Oct-16 06:31N 49°28' W 000°15'0 1.0
2017-Oct-16 06:00N 49°28' W 000°15'610.3
2017-Oct-16 05:28N 49°22' W 000°14'0 0.4
2017-Oct-16 05:01N 49°22' W 000°14'3 6.9
2017-Oct-16 04:30N 49°25' W 000°15'4 7.6
2017-Oct-16 04:00N 49°29' W 000°16'4 7.6
2017-Oct-16 03:31N 49°33' W 000°17'4 7.6
2017-Oct-16 03:01N 49°37' W 000°18'4 7.3
2017-Oct-16 02:24N 49°41' W 000°20'4 7.1
2017-Oct-16 01:51N 49°45' W 000°21'3 7.2
2017-Oct-16 01:29N 49°47' W 000°22'4 7.4
2017-Oct-16 01:01N 49°51' W 000°23'4 7.6
2017-Oct-16 00:30N 49°55' W 000°24'4 7.4
2017-Oct-16 00:00N 49°58' W 000°25'4 7.1
2017-Oct-15 23:30N 50°02' W 000°27'3 5.9
2017-Oct-15 23:01N 50°04' W 000°27'5 9.3
2017-Oct-15 22:30N 50°09' W 000°29'5 9.4
2017-Oct-15 22:01N 50°14' W 000°30'5 9.5
2017-Oct-15 21:31N 50°18' W 000°32'510.2
2017-Oct-15 21:01N 50°23' W 000°33'510.6
2017-Oct-15 20:30N 50°28' W 000°34'5 9.1
2017-Oct-15 20:01N 50°33' W 000°36'4 8.7
2017-Oct-15 19:31N 50°37' W 000°37'0 0.1
2017-Oct-15 19:01N 50°37' W 000°37'5 9.1
2017-Oct-15 18:31N 50°40' W 000°31'510.1
2017-Oct-15 18:01N 50°42' W 000°24'5 9.0
2017-Oct-15 17:30N 50°45' W 000°18'1 1.9
2017-Oct-15 17:00N 50°46' W 000°17'1 1.1
2017-Oct-15 16:31N 50°46' W 000°16'2 4.0
2017-Oct-15 16:00N 50°46' W 000°13'2 4.4
2017-Oct-15 15:30N 50°46' W 000°10'3 6.2
2017-Oct-15 15:01N 50°46' W 000°05'2 1.7
2017-Oct-15 14:01N 50°45' W 000°07'1 1.4
2017-Oct-15 13:31N 50°45' W 000°08'0 0.6
2017-Oct-15 13:01N 50°45' W 000°08'1 1.9
2017-Oct-15 12:30N 50°44' W 000°07'611.1
2017-Oct-15 12:01N 50°39' W 000°05'611.2
2017-Oct-15 11:31N 50°33' W 000°02'611.3
2017-Oct-15 11:01N 50°28' E 000°01'611.2
2017-Oct-15 10:31N 50°23' E 000°03'2 3.4
2017-Oct-15 10:00N 50°21' E 000°05'1 2.9
2017-Oct-15 09:30N 50°21' E 000°03'2 3.9
2017-Oct-15 09:01N 50°21' W 000°00'5 9.4
2017-Oct-15 08:31N 50°24' E 000°06'510.6
2017-Oct-15 08:01N 50°27' E 000°12'510.3
2017-Oct-15 07:31N 50°31' E 000°18'2 4.3
2017-Oct-15 07:00N 50°32' E 000°21'2 4.1
2017-Oct-15 06:27N 50°33' E 000°24'1 2.3
2017-Oct-15 06:01N 50°33' E 000°26'2 4.2
2017-Oct-15 05:31N 50°31' E 000°27'2 3.2
2017-Oct-15 05:01N 50°31' E 000°25'1 2.0
2017-Oct-15 04:30N 50°31' E 000°23'2 2.8
2017-Oct-15 03:57N 50°31' E 000°26'2 3.5
2017-Oct-15 03:31N 50°30' E 000°24'1 2.7
2017-Oct-15 03:00N 50°29' E 000°22'1 1.2
2017-Oct-15 02:31N 50°29' E 000°21'1 1.8
2017-Oct-15 02:01N 50°28' E 000°22'3 5.4
2017-Oct-15 01:31N 50°25' E 000°23'5 9.9
2017-Oct-15 00:57N 50°20' E 000°26'2 3.4
2017-Oct-15 00:29N 50°18' E 000°25'1 2.7
2017-Oct-14 23:55N 50°19' E 000°28'2 5.2
2017-Oct-14 23:30N 50°18' E 000°24'2 4.4
2017-Oct-14 23:01N 50°19' E 000°28'0 0.1
2017-Oct-14 22:10N 50°19' E 000°28'1 5.7
2017-Oct-14 21:59N 50°18' E 000°26'0 0.9
2017-Oct-14 21:29N 50°18' E 000°27'1 2.4
2017-Oct-14 21:01N 50°18' E 000°25'2 4.5
2017-Oct-14 20:31N 50°17' E 000°22'510.5
2017-Oct-14 20:00N 50°14' E 000°15'510.6
2017-Oct-14 19:30N 50°12' E 000°07'510.7
2017-Oct-14 19:00N 50°09' E 000°00'510.2
2017-Oct-14 18:30N 50°06' W 000°06'1 1.4
2017-Oct-14 18:01N 50°06' W 000°07'4 7.1
2017-Oct-14 17:30N 50°02' W 000°06'611.0
2017-Oct-14 16:58N 49°56' W 000°05'2 3.8
2017-Oct-14 16:30N 49°55' W 000°06'1 1.8
2017-Oct-14 16:00N 49°54' W 000°07'2 3.1
2017-Oct-14 15:20N 49°55' W 000°04'2 4.9
2017-Oct-14 14:59N 49°53' W 000°04'511.4
2017-Oct-14 14:31N 49°48' W 000°07'611.1
2017-Oct-14 14:00N 49°43' W 000°10'4 7.1
2017-Oct-14 13:27N 49°39' W 000°13'0 1.0
2017-Oct-14 13:00N 49°39' W 000°12'2 3.5
2017-Oct-14 12:31N 49°39' W 000°10'2 4.5
2017-Oct-14 11:58N 49°37' W 000°12'5 8.9
2017-Oct-14 11:21N 49°33' W 000°18'0 0.7
2017-Oct-14 11:00N 49°33' W 000°17'2 3.1
2017-Oct-14 10:28N 49°33' W 000°20'1 1.9
2017-Oct-14 09:59N 49°33' W 000°20'510.8
2017-Oct-14 09:31N 49°29' W 000°14'3 5.4
2017-Oct-14 09:01N 49°28' W 000°10'1 1.3
2017-Oct-14 08:31N 49°27' W 000°11'2 3.9
2017-Oct-14 08:01N 49°26' W 000°14'4 7.1
2017-Oct-14 07:30N 49°23' W 000°10'3 6.1
2017-Oct-14 07:00N 49°22' W 000°06'2 3.5
2017-Oct-14 06:31N 49°22' W 000°09'2 3.7
2017-Oct-14 06:01N 49°22' W 000°12'1 2.9
2017-Oct-14 05:31N 49°22' W 000°10'0 0.4
2017-Oct-14 05:01N 49°22' W 000°10'0 0.8
2017-Oct-14 04:31N 49°21' W 000°10'0 0.6
2017-Oct-14 04:01N 49°22' W 000°10'2 3.1
2017-Oct-14 03:31N 49°23' W 000°10'1 1.9
2017-Oct-14 03:01N 49°24' W 000°10'1 1.9
2017-Oct-14 02:31N 49°25' W 000°10'1 2.3
2017-Oct-14 02:01N 49°26' W 000°10'1 2.6
2017-Oct-14 01:31N 49°27' W 000°11'0 0.8
2017-Oct-14 01:01N 49°27' W 000°11'0 0.8
2017-Oct-14 00:30N 49°27' W 000°11'0 0.7
2017-Oct-14 00:01N 49°27' W 000°11'1 2.5
2017-Oct-13 23:30N 49°27' W 000°13'1 2.6
2017-Oct-13 23:00N 49°27' W 000°11'0 0.2
2017-Oct-13 22:31N 49°27' W 000°11'1 2.7
2017-Oct-13 22:01N 49°27' W 000°13'1 2.3
2017-Oct-13 21:31N 49°27' W 000°11'0 0.8
2017-Oct-13 21:00N 49°27' W 000°11'1 2.9
2017-Oct-13 20:31N 49°26' W 000°12'1 1.4
2017-Oct-13 20:01N 49°27' W 000°12'1 2.2
2017-Oct-13 19:30N 49°27' W 000°10'4 8.5
2017-Oct-13 19:01N 49°29' W 000°04'2 4.5
2017-Oct-13 18:31N 49°30' W 000°01'1 2.1
2017-Oct-13 18:00N 49°30' E 000°01'2 3.7
2017-Oct-13 17:30N 49°31' E 000°02'510.1
2017-Oct-13 17:00N 49°36' E 000°03'0 1.0
2017-Oct-13 16:31N 49°37' E 000°03'1 2.1
2017-Oct-13 16:01N 49°37' E 000°04'2 4.4
2017-Oct-13 15:31N 49°39' E 000°06'5 9.1
2017-Oct-13 15:01N 49°44' E 000°07'  
2017-Oct-10 04:35N 50°35' E 001°26'0 0.7
2017-Oct-10 04:29N 50°35' E 001°26'19 1.0
2017-Oct-09 09:18N 50°27' E 000°58'411.6
2017-Oct-09 09:00N 50°30' E 000°57'3 4.5
2017-Oct-09 08:25N 50°33' E 000°56'1 2.7
2017-Oct-09 07:57N 50°32' E 000°54'2 4.5
2017-Oct-09 07:30N 50°32' E 000°51'5 9.5
2017-Oct-09 07:01N 50°33' E 000°44'2 3.0
2017-Oct-09 06:31N 50°34' E 000°42'2 4.1
2017-Oct-09 06:00N 50°34' E 000°39'1 2.6
2017-Oct-09 05:25N 50°34' E 000°41'0 0.9
2017-Oct-09 05:01N 50°34' E 000°41'0 0.7
2017-Oct-09 04:30N 50°34' E 000°42'1 1.7
2017-Oct-09 04:01N 50°34' E 000°41'0 0.9
2017-Oct-09 03:29N 50°33' E 000°41'1 1.2
2017-Oct-09 03:00N 50°33' E 000°40'1 2.0
2017-Oct-09 02:31N 50°32' E 000°39'0 0.7
2017-Oct-09 01:58N 50°32' E 000°38'1 2.5
2017-Oct-09 01:28N 50°33' E 000°40'1 2.2
2017-Oct-09 01:01N 50°33' E 000°41'1 2.1
2017-Oct-09 00:30N 50°34' E 000°42'1 1.5
2017-Oct-09 00:01N 50°34' E 000°43'1 1.9
2017-Oct-08 23:31N 50°34' E 000°44'0 0.6
2017-Oct-08 23:01N 50°34' E 000°44'1 1.8
2017-Oct-08 22:31N 50°34' E 000°42'0 0.5
2017-Oct-08 22:01N 50°34' E 000°42'1 2.8
2017-Oct-08 21:31N 50°34' E 000°44'0 0.6
2017-Oct-08 21:00N 50°34' E 000°44'2 3.5
2017-Oct-08 20:30N 50°34' E 000°41'0 0.7
2017-Oct-08 20:00N 50°34' E 000°41'1 1.9
2017-Oct-08 19:31N 50°34' E 000°43'1 2.0
2017-Oct-08 19:01N 50°34' E 000°41'510.4
2017-Oct-08 18:31N 50°38' E 000°38'510.1
2017-Oct-08 18:01N 50°43' E 000°34'5 9.5
2017-Oct-08 17:31N 50°47' E 000°30'1 1.2
2017-Oct-08 17:01N 50°47' E 000°31'2 3.6
2017-Oct-08 16:30N 50°48' E 000°34'1 1.5
2017-Oct-08 16:01N 50°47' E 000°34'2 3.5
2017-Oct-08 15:31N 50°47' E 000°37'510.2
2017-Oct-08 15:01N 50°49' E 000°44'510.5
2017-Oct-08 14:31N 50°52' E 000°51'1 1.3
2017-Oct-08 14:01N 50°52' E 000°52'2 3.8
2017-Oct-08 13:30N 50°53' E 000°55'3 5.3
2017-Oct-08 13:00N 50°51' E 000°52'5 9.6
2017-Oct-08 12:31N 50°47' E 000°50'0 0.8
2017-Oct-08 12:01N 50°47' E 000°50'1 2.2
2017-Oct-08 11:31N 50°47' E 000°51'2 4.0
2017-Oct-08 11:01N 50°48' E 000°54'5 9.5
2017-Oct-08 10:30N 50°45' E 000°59'510.1
2017-Oct-08 10:00N 50°41' E 001°04'0 0.5
2017-Oct-08 09:30N 50°41' E 001°04'2 3.1
2017-Oct-08 09:01N 50°40' E 001°02'2 3.9
2017-Oct-08 08:30N 50°40' E 000°59'611.5
2017-Oct-08 08:01N 50°46' E 000°57'5 9.2
2017-Oct-08 07:31N 50°50' E 000°56'612.4
2017-Oct-08 07:00N 50°54' E 001°03'3 4.9
2017-Oct-08 06:29N 50°57' E 001°05'2 3.0
2017-Oct-08 05:55N 50°58' E 001°05'1 2.4
2017-Oct-08 05:30N 50°58' E 001°07'1 1.2
2017-Oct-08 05:00N 50°58' E 001°07'0 0.5
2017-Oct-08 04:30N 50°59' E 001°07'1 1.9
2017-Oct-08 04:00N 50°58' E 001°06'1 2.8
2017-Oct-08 03:30N 50°56' E 001°05'1 1.7
2017-Oct-08 03:00N 50°57' E 001°05'1 1.9
2017-Oct-08 02:29N 50°58' E 001°05'0 0.7
2017-Oct-08 01:59N 50°58' E 001°05'1 1.7
2017-Oct-08 01:26N 50°57' E 001°05'0 0.6
2017-Oct-08 00:58N 50°57' E 001°05'2 3.7
2017-Oct-08 00:30N 50°58' E 001°06'1 2.3
2017-Oct-08 00:00N 50°57' E 001°05'1 1.7
2017-Oct-07 23:30N 50°56' E 001°05'2 3.8
2017-Oct-07 23:00N 50°58' E 001°05'2 3.7
2017-Oct-07 22:30N 50°56' E 001°05'1 2.2
2017-Oct-07 21:59N 50°57' E 001°06'0 0.2
2017-Oct-07 21:29N 50°57' E 001°06'1 1.0
2017-Oct-07 20:58N 50°58' E 001°06'1 3.2
2017-Oct-07 20:31N 50°56' E 001°06'4 7.8
2017-Oct-07 20:00N 50°59' E 001°10'612.3
2017-Oct-07 19:31N 51°03' E 001°18'4 7.6
2017-Oct-07 19:00N 51°04' E 001°23'2 4.7
2017-Oct-07 18:30N 51°05' E 001°27'611.2
2017-Oct-07 18:00N 51°04' E 001°36'510.3
2017-Oct-07 17:30N 51°01' E 001°43'1 1.2
2017-Oct-07 17:00N 51°01' E 001°42'612.0
2017-Oct-07 16:30N 50°57' E 001°35'612.5
2017-Oct-07 16:00N 50°53' E 001°27'510.8
2017-Oct-07 15:30N 50°50' E 001°20'  
Track history (hours):
 
Tides and Currents Weather Stations Pressure Air Temp Water Temp Dewpoint Dewpoint Depression Visibility Wind Speed Wind Dir Waves Ship Positions

Oceanographic research ship Thalassa (France & Spain)

Detailed information on ship capabilities available from University of Delaware's Ocean Information Center.

Last reported at 2017-Oct-17 15:00 UTC. Time now 2017-Oct-17 15:10 UTC.
Position N 50°07' W 000°25'.

Length 74 m; beam 15 m.

Type: Other ship. MMSI: 227297000.

Date/timePositionNaut miles runAvg speedWind from/ knotsBaromVisibWave heightAir tempDewpointWater temp
2017-Oct-17 15:00N 50°07' W 000°25'713.2
2017-Oct-17 14:30N 50°10' W 000°16'713.3
2017-Oct-17 14:01N 50°13' W 000°07'3 6.4
2017-Oct-17 13:30N 50°15' W 000°03'1 3.0
2017-Oct-17 13:00N 50°14' W 000°05'3 5.7
2017-Oct-17 12:30N 50°16' W 000°08'5 9.2
2017-Oct-17 12:00N 50°21' W 000°10'0 0.1
2017-Oct-17 11:28N 50°21' W 000°10'2 3.7
2017-Oct-17 11:00N 50°20' W 000°13'3 6.7
2017-Oct-17 10:31N 50°23' W 000°12'611.0
2017-Oct-17 10:00N 50°29' W 000°11'3 6.3
2017-Oct-17 09:30N 50°32' W 000°11'1 1.7
2017-Oct-17 09:00N 50°33' W 000°11'2 3.4
2017-Oct-17 08:30N 50°33' W 000°08'2 4.6
2017-Oct-17 08:01N 50°34' W 000°05'4 7.7
2017-Oct-17 07:30N 50°32' E 000°01'1 2.3
2017-Oct-17 07:01N 50°33' E 000°03'2 4.1
2017-Oct-17 06:31N 50°33' E 000°06'1 2.8
2017-Oct-17 06:00N 50°34' E 000°08'1 1.8
2017-Oct-17 05:31N 50°35' E 000°08'0 0.8
2017-Oct-17 05:00N 50°35' E 000°07'1 2.8
2017-Oct-17 04:31N 50°35' E 000°05'0 1.0
2017-Oct-17 04:00N 50°35' E 000°06'1 1.0
2017-Oct-17 03:31N 50°35' E 000°07'0 0.4
2017-Oct-17 03:00N 50°35' E 000°06'2 3.2
2017-Oct-17 02:30N 50°35' E 000°04'2 3.5
2017-Oct-17 02:00N 50°33' E 000°03'510.6
2017-Oct-17 01:31N 50°28' E 000°05'510.5
2017-Oct-17 01:00N 50°23' E 000°07'510.5
2017-Oct-17 00:30N 50°18' E 000°09'5 9.4
2017-Oct-17 00:00N 50°16' E 000°03'5 9.7
2017-Oct-16 23:30N 50°15' W 000°05'1 1.8
2017-Oct-16 22:53N 50°14' W 000°05'1 2.5
2017-Oct-16 22:30N 50°14' W 000°04'1 2.8
2017-Oct-16 22:01N 50°14' W 000°06'1 1.4
2017-Oct-16 21:26N 50°14' W 000°05'1 1.5
2017-Oct-16 21:00N 50°14' W 000°04'1 2.2
2017-Oct-16 20:31N 50°14' W 000°06'1 1.1
2017-Oct-16 20:00N 50°14' W 000°05'1 2.1
2017-Oct-16 19:30N 50°15' W 000°03'2 3.8
2017-Oct-16 19:00N 50°14' W 000°06'510.5
2017-Oct-16 18:31N 50°09' W 000°08'611.7
2017-Oct-16 18:01N 50°03' W 000°09'611.6
2017-Oct-16 17:31N 49°58' W 000°11'610.4
2017-Oct-16 16:54N 49°51' W 000°13'1 2.9
2017-Oct-16 16:30N 49°50' W 000°13'1 1.4
2017-Oct-16 16:00N 49°50' W 000°14'4 3.8
2017-Oct-16 15:01N 49°50' W 000°20'0 1.7
2017-Oct-16 14:55N 49°50' W 000°20'26 3.9
2017-Oct-16 08:10N 49°25' W 000°32'310.1
2017-Oct-16 07:51N 49°26' W 000°27'410.3
2017-Oct-16 07:31N 49°28' W 000°22'3 5.1
2017-Oct-16 06:59N 49°28' W 000°18'2 4.0
2017-Oct-16 06:31N 49°28' W 000°15'0 1.0
2017-Oct-16 06:00N 49°28' W 000°15'610.3
2017-Oct-16 05:28N 49°22' W 000°14'0 0.4
2017-Oct-16 05:01N 49°22' W 000°14'3 6.9
2017-Oct-16 04:30N 49°25' W 000°15'4 7.6
2017-Oct-16 04:00N 49°29' W 000°16'4 7.6
2017-Oct-16 03:31N 49°33' W 000°17'4 7.6
2017-Oct-16 03:01N 49°37' W 000°18'4 7.3
2017-Oct-16 02:24N 49°41' W 000°20'4 7.1
2017-Oct-16 01:51N 49°45' W 000°21'3 7.2
2017-Oct-16 01:29N 49°47' W 000°22'4 7.4
2017-Oct-16 01:01N 49°51' W 000°23'4 7.6
2017-Oct-16 00:30N 49°55' W 000°24'4 7.4
2017-Oct-16 00:00N 49°58' W 000°25'4 7.1
2017-Oct-15 23:30N 50°02' W 000°27'3 5.9
2017-Oct-15 23:01N 50°04' W 000°27'5 9.3
2017-Oct-15 22:30N 50°09' W 000°29'5 9.4
2017-Oct-15 22:01N 50°14' W 000°30'5 9.5
2017-Oct-15 21:31N 50°18' W 000°32'510.2
2017-Oct-15 21:01N 50°23' W 000°33'510.6
2017-Oct-15 20:30N 50°28' W 000°34'5 9.1
2017-Oct-15 20:01N 50°33' W 000°36'4 8.7
2017-Oct-15 19:31N 50°37' W 000°37'0 0.1
2017-Oct-15 19:01N 50°37' W 000°37'5 9.1
2017-Oct-15 18:31N 50°40' W 000°31'510.1
2017-Oct-15 18:01N 50°42' W 000°24'5 9.0
2017-Oct-15 17:30N 50°45' W 000°18'1 1.9
2017-Oct-15 17:00N 50°46' W 000°17'1 1.1
2017-Oct-15 16:31N 50°46' W 000°16'2 4.0
2017-Oct-15 16:00N 50°46' W 000°13'2 4.4
2017-Oct-15 15:30N 50°46' W 000°10'3 6.2
2017-Oct-15 15:01N 50°46' W 000°05'2 1.7
2017-Oct-15 14:01N 50°45' W 000°07'1 1.4
2017-Oct-15 13:31N 50°45' W 000°08'0 0.6
2017-Oct-15 13:01N 50°45' W 000°08'1 1.9
2017-Oct-15 12:30N 50°44' W 000°07'611.1
2017-Oct-15 12:01N 50°39' W 000°05'611.2
2017-Oct-15 11:31N 50°33' W 000°02'611.3
2017-Oct-15 11:01N 50°28' E 000°01'611.2
2017-Oct-15 10:31N 50°23' E 000°03'2 3.4
2017-Oct-15 10:00N 50°21' E 000°05'1 2.9
2017-Oct-15 09:30N 50°21' E 000°03'2 3.9
2017-Oct-15 09:01N 50°21' W 000°00'5 9.4
2017-Oct-15 08:31N 50°24' E 000°06'510.6
2017-Oct-15 08:01N 50°27' E 000°12'510.3
2017-Oct-15 07:31N 50°31' E 000°18'2 4.3
2017-Oct-15 07:00N 50°32' E 000°21'2 4.1
2017-Oct-15 06:27N 50°33' E 000°24'1 2.3
2017-Oct-15 06:01N 50°33' E 000°26'2 4.2
2017-Oct-15 05:31N 50°31' E 000°27'2 3.2
2017-Oct-15 05:01N 50°31' E 000°25'1 2.0
2017-Oct-15 04:30N 50°31' E 000°23'2 2.8
2017-Oct-15 03:57N 50°31' E 000°26'2 3.5
2017-Oct-15 03:31N 50°30' E 000°24'1 2.7
2017-Oct-15 03:00N 50°29' E 000°22'1 1.2
2017-Oct-15 02:31N 50°29' E 000°21'1 1.8
2017-Oct-15 02:01N 50°28' E 000°22'3 5.4
2017-Oct-15 01:31N 50°25' E 000°23'5 9.9
2017-Oct-15 00:57N 50°20' E 000°26'2 3.4
2017-Oct-15 00:29N 50°18' E 000°25'1 2.7
2017-Oct-14 23:55N 50°19' E 000°28'2 5.2
2017-Oct-14 23:30N 50°18' E 000°24'2 4.4
2017-Oct-14 23:01N 50°19' E 000°28'0 0.1
2017-Oct-14 22:10N 50°19' E 000°28'1 5.7
2017-Oct-14 21:59N 50°18' E 000°26'0 0.9
2017-Oct-14 21:29N 50°18' E 000°27'1 2.4
2017-Oct-14 21:01N 50°18' E 000°25'2 4.5
2017-Oct-14 20:31N 50°17' E 000°22'510.5
2017-Oct-14 20:00N 50°14' E 000°15'510.6
2017-Oct-14 19:30N 50°12' E 000°07'510.7
2017-Oct-14 19:00N 50°09' E 000°00'510.2
2017-Oct-14 18:30N 50°06' W 000°06'1 1.4
2017-Oct-14 18:01N 50°06' W 000°07'4 7.1
2017-Oct-14 17:30N 50°02' W 000°06'611.0
2017-Oct-14 16:58N 49°56' W 000°05'2 3.8
2017-Oct-14 16:30N 49°55' W 000°06'1 1.8
2017-Oct-14 16:00N 49°54' W 000°07'2 3.1
2017-Oct-14 15:20N 49°55' W 000°04'2 4.9
2017-Oct-14 14:59N 49°53' W 000°04'511.4
2017-Oct-14 14:31N 49°48' W 000°07'611.1
2017-Oct-14 14:00N 49°43' W 000°10'4 7.1
2017-Oct-14 13:27N 49°39' W 000°13'0 1.0
2017-Oct-14 13:00N 49°39' W 000°12'2 3.5
2017-Oct-14 12:31N 49°39' W 000°10'2 4.5
2017-Oct-14 11:58N 49°37' W 000°12'5 8.9
2017-Oct-14 11:21N 49°33' W 000°18'0 0.7
2017-Oct-14 11:00N 49°33' W 000°17'2 3.1
2017-Oct-14 10:28N 49°33' W 000°20'1 1.9
2017-Oct-14 09:59N 49°33' W 000°20'510.8
2017-Oct-14 09:31N 49°29' W 000°14'3 5.4
2017-Oct-14 09:01N 49°28' W 000°10'1 1.3
2017-Oct-14 08:31N 49°27' W 000°11'2 3.9
2017-Oct-14 08:01N 49°26' W 000°14'4 7.1
2017-Oct-14 07:30N 49°23' W 000°10'3 6.1
2017-Oct-14 07:00N 49°22' W 000°06'2 3.5
2017-Oct-14 06:31N 49°22' W 000°09'2 3.7
2017-Oct-14 06:01N 49°22' W 000°12'1 2.9
2017-Oct-14 05:31N 49°22' W 000°10'0 0.4
2017-Oct-14 05:01N 49°22' W 000°10'0 0.8
2017-Oct-14 04:31N 49°21' W 000°10'0 0.6
2017-Oct-14 04:01N 49°22' W 000°10'2 3.1
2017-Oct-14 03:31N 49°23' W 000°10'1 1.9
2017-Oct-14 03:01N 49°24' W 000°10'1 1.9
2017-Oct-14 02:31N 49°25' W 000°10'1 2.3
2017-Oct-14 02:01N 49°26' W 000°10'1 2.6
2017-Oct-14 01:31N 49°27' W 000°11'0 0.8
2017-Oct-14 01:01N 49°27' W 000°11'0 0.8
2017-Oct-14 00:30N 49°27' W 000°11'0 0.7
2017-Oct-14 00:01N 49°27' W 000°11'1 2.5
2017-Oct-13 23:30N 49°27' W 000°13'1 2.6
2017-Oct-13 23:00N 49°27' W 000°11'0 0.2
2017-Oct-13 22:31N 49°27' W 000°11'1 2.7
2017-Oct-13 22:01N 49°27' W 000°13'1 2.3
2017-Oct-13 21:31N 49°27' W 000°11'0 0.8
2017-Oct-13 21:00N 49°27' W 000°11'1 2.9
2017-Oct-13 20:31N 49°26' W 000°12'1 1.4
2017-Oct-13 20:01N 49°27' W 000°12'1 2.2
2017-Oct-13 19:30N 49°27' W 000°10'4 8.5
2017-Oct-13 19:01N 49°29' W 000°04'2 4.5
2017-Oct-13 18:31N 49°30' W 000°01'1 2.1
2017-Oct-13 18:00N 49°30' E 000°01'2 3.7
2017-Oct-13 17:30N 49°31' E 000°02'510.1
2017-Oct-13 17:00N 49°36' E 000°03'0 1.0
2017-Oct-13 16:31N 49°37' E 000°03'1 2.1
2017-Oct-13 16:01N 49°37' E 000°04'2 4.4
2017-Oct-13 15:31N 49°39' E 000°06'5 9.1
2017-Oct-13 15:01N 49°44' E 000°07'  
2017-Oct-10 04:35N 50°35' E 001°26'0 0.7
2017-Oct-10 04:29N 50°35' E 001°26'19 1.0
2017-Oct-09 09:18N 50°27' E 000°58'411.6
2017-Oct-09 09:00N 50°30' E 000°57'3 4.5
2017-Oct-09 08:25N 50°33' E 000°56'1 2.7
2017-Oct-09 07:57N 50°32' E 000°54'2 4.5
2017-Oct-09 07:30N 50°32' E 000°51'5 9.5
2017-Oct-09 07:01N 50°33' E 000°44'2 3.0
2017-Oct-09 06:31N 50°34' E 000°42'2 4.1
2017-Oct-09 06:00N 50°34' E 000°39'1 2.6
2017-Oct-09 05:25N 50°34' E 000°41'0 0.9
2017-Oct-09 05:01N 50°34' E 000°41'0 0.7
2017-Oct-09 04:30N 50°34' E 000°42'1 1.7
2017-Oct-09 04:01N 50°34' E 000°41'0 0.9
2017-Oct-09 03:29N 50°33' E 000°41'1 1.2
2017-Oct-09 03:00N 50°33' E 000°40'1 2.0
2017-Oct-09 02:31N 50°32' E 000°39'0 0.7
2017-Oct-09 01:58N 50°32' E 000°38'1 2.5
2017-Oct-09 01:28N 50°33' E 000°40'1 2.2
2017-Oct-09 01:01N 50°33' E 000°41'1 2.1
2017-Oct-09 00:30N 50°34' E 000°42'1 1.5
2017-Oct-09 00:01N 50°34' E 000°43'1 1.9
2017-Oct-08 23:31N 50°34' E 000°44'0 0.6
2017-Oct-08 23:01N 50°34' E 000°44'1 1.8
2017-Oct-08 22:31N 50°34' E 000°42'0 0.5
2017-Oct-08 22:01N 50°34' E 000°42'1 2.8
2017-Oct-08 21:31N 50°34' E 000°44'0 0.6
2017-Oct-08 21:00N 50°34' E 000°44'2 3.5
2017-Oct-08 20:30N 50°34' E 000°41'0 0.7
2017-Oct-08 20:00N 50°34' E 000°41'1 1.9
2017-Oct-08 19:31N 50°34' E 000°43'1 2.0
2017-Oct-08 19:01N 50°34' E 000°41'510.4
2017-Oct-08 18:31N 50°38' E 000°38'510.1
2017-Oct-08 18:01N 50°43' E 000°34'5 9.5
2017-Oct-08 17:31N 50°47' E 000°30'1 1.2
2017-Oct-08 17:01N 50°47' E 000°31'2 3.6
2017-Oct-08 16:30N 50°48' E 000°34'1 1.5
2017-Oct-08 16:01N 50°47' E 000°34'2 3.5
2017-Oct-08 15:31N 50°47' E 000°37'510.2
2017-Oct-08 15:01N 50°49' E 000°44'510.5
2017-Oct-08 14:31N 50°52' E 000°51'1 1.3
2017-Oct-08 14:01N 50°52' E 000°52'2 3.8
2017-Oct-08 13:30N 50°53' E 000°55'3 5.3
2017-Oct-08 13:00N 50°51' E 000°52'5 9.6
2017-Oct-08 12:31N 50°47' E 000°50'0 0.8
2017-Oct-08 12:01N 50°47' E 000°50'1 2.2
2017-Oct-08 11:31N 50°47' E 000°51'2 4.0
2017-Oct-08 11:01N 50°48' E 000°54'5 9.5
2017-Oct-08 10:30N 50°45' E 000°59'510.1
2017-Oct-08 10:00N 50°41' E 001°04'0 0.5
2017-Oct-08 09:30N 50°41' E 001°04'2 3.1
2017-Oct-08 09:01N 50°40' E 001°02'2 3.9
2017-Oct-08 08:30N 50°40' E 000°59'611.5
2017-Oct-08 08:01N 50°46' E 000°57'5 9.2
2017-Oct-08 07:31N 50°50' E 000°56'612.4
2017-Oct-08 07:00N 50°54' E 001°03'3 4.9
2017-Oct-08 06:29N 50°57' E 001°05'2 3.0
2017-Oct-08 05:55N 50°58' E 001°05'1 2.4
2017-Oct-08 05:30N 50°58' E 001°07'1 1.2
2017-Oct-08 05:00N 50°58' E 001°07'0 0.5
2017-Oct-08 04:30N 50°59' E 001°07'1 1.9
2017-Oct-08 04:00N 50°58' E 001°06'1 2.8
2017-Oct-08 03:30N 50°56' E 001°05'1 1.7
2017-Oct-08 03:00N 50°57' E 001°05'1 1.9
2017-Oct-08 02:29N 50°58' E 001°05'0 0.7
2017-Oct-08 01:59N 50°58' E 001°05'1 1.7
2017-Oct-08 01:26N 50°57' E 001°05'0 0.6
2017-Oct-08 00:58N 50°57' E 001°05'2 3.7
2017-Oct-08 00:30N 50°58' E 001°06'1 2.3
2017-Oct-08 00:00N 50°57' E 001°05'1 1.7
2017-Oct-07 23:30N 50°56' E 001°05'2 3.8
2017-Oct-07 23:00N 50°58' E 001°05'2 3.7
2017-Oct-07 22:30N 50°56' E 001°05'1 2.2
2017-Oct-07 21:59N 50°57' E 001°06'0 0.2
2017-Oct-07 21:29N 50°57' E 001°06'1 1.0
2017-Oct-07 20:58N 50°58' E 001°06'1 3.2
2017-Oct-07 20:31N 50°56' E 001°06'4 7.8
2017-Oct-07 20:00N 50°59' E 001°10'612.3
2017-Oct-07 19:31N 51°03' E 001°18'4 7.6
2017-Oct-07 19:00N 51°04' E 001°23'2 4.7
2017-Oct-07 18:30N 51°05' E 001°27'611.2
2017-Oct-07 18:00N 51°04' E 001°36'510.3
2017-Oct-07 17:30N 51°01' E 001°43'1 1.2
2017-Oct-07 17:00N 51°01' E 001°42'612.0
2017-Oct-07 16:30N 50°57' E 001°35'612.5
2017-Oct-07 16:00N 50°53' E 001°27'510.8
2017-Oct-07 15:30N 50°50' E 001°20'  

Dump ship's entire track history